createdAt,value
2023-05-29T00:00:45.794Z,86
2023-05-29T00:03:11.900Z,86.2
2023-05-29T00:05:37.992Z,86.2
2023-05-29T00:08:03.096Z,86
2023-05-29T00:10:29.198Z,86.5
2023-05-29T00:12:55.310Z,87
2023-05-29T00:15:21.382Z,87.2
2023-05-29T00:17:47.491Z,87.7
2023-05-29T00:20:13.571Z,88.2
2023-05-29T00:22:39.668Z,88.6
2023-05-29T00:25:05.765Z,88.5
2023-05-29T00:27:31.867Z,88.7
2023-05-29T00:29:57.964Z,88.9
2023-05-29T00:32:24.052Z,88.8
2023-05-29T00:34:50.173Z,88.9
2023-05-29T00:37:16.293Z,88.5
2023-05-29T00:39:41.355Z,88.2
2023-05-29T00:42:07.446Z,88.6
2023-05-29T00:44:33.544Z,89.1
2023-05-29T00:46:59.636Z,89.2
2023-05-29T00:49:25.735Z,89.1
2023-05-29T00:51:51.827Z,89.5
2023-05-29T00:54:17.949Z,89.4
2023-05-29T00:56:44.007Z,89.5
2023-05-29T00:59:10.100Z,89.4
2023-05-29T01:01:36.197Z,89.3
2023-05-29T01:04:02.350Z,89.5
2023-05-29T01:06:28.404Z,89.1
2023-05-29T01:08:54.490Z,88.6
2023-05-29T01:11:19.606Z,89.1
2023-05-29T01:13:45.689Z,88.9
2023-05-29T01:16:11.800Z,88
2023-05-29T01:18:37.878Z,88.4
2023-05-29T01:21:03.972Z,88.9
2023-05-29T01:23:30.080Z,88.7
2023-05-29T01:25:56.173Z,88.8
2023-05-29T01:28:22.272Z,88.8
2023-05-29T01:30:48.362Z,89.2
2023-05-29T01:33:14.450Z,89
2023-05-29T01:35:40.543Z,89.1
2023-05-29T01:38:06.663Z,88.9
2023-05-29T01:40:32.762Z,89.1
2023-05-29T01:42:57.859Z,89
2023-05-29T01:45:23.949Z,89.3
2023-05-29T01:47:50.033Z,89.4
2023-05-29T01:52:42.233Z,89.3
2023-05-29T01:55:08.336Z,89.3
2023-05-29T01:57:34.429Z,89.1
2023-05-29T02:00:00.520Z,89.4
2023-05-29T02:02:26.608Z,89.6
2023-05-29T02:04:52.709Z,89.3
2023-05-29T02:07:18.844Z,89.7
2023-05-29T02:09:44.897Z,89.9
2023-05-29T02:12:11.003Z,89.9
2023-05-29T02:14:36.105Z,90
2023-05-29T02:17:02.190Z,90.1
2023-05-29T02:19:28.291Z,90.1
2023-05-29T02:21:54.384Z,90.2
2023-05-29T02:24:20.499Z,89.5
2023-05-29T02:26:46.587Z,89.4
2023-05-29T02:29:12.678Z,89.8
2023-05-29T02:31:38.777Z,90.1
2023-05-29T02:34:04.872Z,90.2
2023-05-29T02:36:30.970Z,90.1
2023-05-29T02:38:57.071Z,90.5
2023-05-29T02:41:23.159Z,90.3
2023-05-29T02:43:49.243Z,90.9
2023-05-29T02:46:14.367Z,91.5
2023-05-29T02:48:40.456Z,91.7
2023-05-29T02:51:06.547Z,91.5
2023-05-29T02:53:32.656Z,91.2
2023-05-29T02:55:58.745Z,91.7
2023-05-29T02:58:24.840Z,92.3
2023-05-29T03:00:50.936Z,92
2023-05-29T03:03:17.017Z,91.8
2023-05-29T03:05:43.124Z,92.4
2023-05-29T03:08:09.212Z,92.3
2023-05-29T03:10:35.321Z,91.6
2023-05-29T03:13:01.395Z,91.5
2023-05-29T03:15:27.497Z,91.7
2023-05-29T03:17:52.601Z,91.4
2023-05-29T03:20:18.727Z,91.7
2023-05-29T03:22:44.798Z,91.8
2023-05-29T03:25:10.883Z,92.3
2023-05-29T03:27:36.990Z,92.5
2023-05-29T03:30:03.073Z,92.5
2023-05-29T03:32:29.180Z,92.8
2023-05-29T03:34:55.282Z,92.8
2023-05-29T03:37:21.374Z,93
2023-05-29T03:39:47.457Z,93.2
2023-05-29T03:42:13.562Z,93.7
2023-05-29T03:44:39.660Z,93.3
2023-05-29T03:47:05.763Z,93.1
2023-05-29T03:49:30.867Z,93.3
2023-05-29T03:51:56.952Z,92.9
2023-05-29T03:54:23.057Z,92.5
2023-05-29T03:56:49.149Z,92.3
2023-05-29T03:59:15.238Z,92.5
2023-05-29T04:01:41.329Z,93
2023-05-29T04:04:07.443Z,93.2
2023-05-29T04:06:33.592Z,93.1
2023-05-29T04:08:59.622Z,93.2
2023-05-29T04:11:25.851Z,93.4
2023-05-29T04:13:51.817Z,93.4
2023-05-29T04:16:17.907Z,93.2
2023-05-29T04:18:43.995Z,93.3
2023-05-29T04:21:09.110Z,93.1
2023-05-29T04:23:35.216Z,93
2023-05-29T04:26:01.300Z,92.4
2023-05-29T04:28:27.399Z,92.5
2023-05-29T04:30:53.489Z,92.6
2023-05-29T04:33:19.585Z,92.5
2023-05-29T04:35:45.691Z,92.1
2023-05-29T04:38:11.771Z,92.3
2023-05-29T04:40:37.917Z,92.3
2023-05-29T04:43:03.983Z,91.1
2023-05-29T04:45:30.072Z,90.6
2023-05-29T04:47:56.162Z,90.8
2023-05-29T04:50:22.255Z,89.5
2023-05-29T04:52:47.370Z,89.4
2023-05-29T04:55:13.467Z,88.7
2023-05-29T04:57:39.566Z,88.3
2023-05-29T05:00:05.642Z,88
2023-05-29T05:02:31.732Z,87.2
2023-05-29T05:04:57.847Z,87.3
2023-05-29T05:07:23.940Z,88.2
2023-05-29T05:09:50.029Z,88.3
2023-05-29T05:12:16.132Z,87.4
2023-05-29T05:14:42.230Z,87.4
2023-05-29T05:17:08.324Z,87.4
2023-05-29T05:19:34.428Z,87
2023-05-29T05:22:00.503Z,87.2
2023-05-29T05:24:25.615Z,86.9
2023-05-29T05:26:51.715Z,86.4
2023-05-29T05:29:17.809Z,86.3
2023-05-29T05:31:43.942Z,85.7
2023-05-29T05:34:10.006Z,85.8
2023-05-29T05:36:36.088Z,85.8
2023-05-29T05:39:02.201Z,84.4
2023-05-29T05:41:28.339Z,83.6
2023-05-29T05:43:54.384Z,83.9
2023-05-29T05:46:20.486Z,83.9
2023-05-29T05:48:46.565Z,83.3
2023-05-29T05:51:12.679Z,83.5
2023-05-29T05:53:38.805Z,82.9
2023-05-29T05:56:03.871Z,82.7
2023-05-29T05:58:29.975Z,82.3
2023-05-29T06:00:56.062Z,81.9
2023-05-29T06:03:22.164Z,81.1
2023-05-29T06:05:48.249Z,81.1
2023-05-29T06:08:14.393Z,81
2023-05-29T06:10:40.433Z,81.3
2023-05-29T06:13:06.551Z,80.5
2023-05-29T06:15:32.640Z,81.3
2023-05-29T06:17:58.743Z,80
2023-05-29T06:20:24.810Z,79.6
2023-05-29T06:22:50.978Z,79.5
2023-05-29T06:25:17.065Z,78.6
2023-05-29T06:27:42.136Z,78.4
2023-05-29T06:30:08.203Z,78.2
2023-05-29T06:32:34.294Z,77.7
2023-05-29T06:35:00.393Z,76.7
2023-05-29T06:37:26.499Z,76.3
2023-05-29T06:39:52.590Z,76.2
2023-05-29T06:42:18.688Z,75.5
2023-05-29T06:44:44.787Z,74.8
2023-05-29T06:47:10.869Z,74.4
2023-05-29T06:49:36.983Z,72.8
2023-05-29T06:52:03.089Z,71.7
2023-05-29T06:54:29.173Z,71.5
2023-05-29T06:56:55.267Z,71.7
2023-05-29T06:59:20.387Z,72.1
2023-05-29T07:01:46.489Z,71.4
2023-05-29T07:04:12.671Z,72.6
2023-05-29T07:06:38.648Z,70.5
2023-05-29T07:09:04.804Z,70.8
2023-05-29T07:11:30.922Z,70.5
2023-05-29T07:13:56.948Z,68.6
2023-05-29T07:16:23.039Z,66.9
2023-05-29T07:18:49.129Z,66.9
2023-05-29T07:21:15.208Z,66.9
2023-05-29T07:23:41.457Z,67.2
2023-05-29T07:26:07.564Z,67.7
2023-05-29T07:28:33.524Z,66.6
2023-05-29T07:30:58.627Z,66.5
2023-05-29T07:33:24.713Z,66.6
2023-05-29T07:35:50.948Z,65
2023-05-29T07:38:16.908Z,65.1
2023-05-29T07:40:42.984Z,65.9
2023-05-29T07:43:09.096Z,65.8
2023-05-29T07:45:35.229Z,64.7
2023-05-29T07:48:01.392Z,63.9
2023-05-29T07:50:27.354Z,64.6
2023-05-29T07:52:53.466Z,64.8
2023-05-29T07:55:19.587Z,64.5
2023-05-29T07:57:45.649Z,63.7
2023-05-29T08:00:11.749Z,64
2023-05-29T08:02:36.873Z,64.3
2023-05-29T08:05:02.951Z,63.6
2023-05-29T08:07:29.045Z,62.8
2023-05-29T08:09:55.168Z,63
2023-05-29T08:12:21.243Z,63.3
2023-05-29T08:14:47.334Z,62.8
2023-05-29T08:17:13.421Z,63.4
2023-05-29T08:19:39.526Z,62.4
2023-05-29T08:22:05.627Z,62.2
2023-05-29T08:24:31.726Z,62.3
2023-05-29T08:26:57.811Z,61.6
2023-05-29T08:29:23.915Z,61.2
2023-05-29T08:31:49.979Z,60
2023-05-29T08:34:16.085Z,59.6
2023-05-29T08:36:42.173Z,59
2023-05-29T08:39:07.342Z,59.4
2023-05-29T08:41:33.406Z,58
2023-05-29T08:43:59.477Z,57.7
2023-05-29T08:46:25.571Z,57.7
2023-05-29T08:48:51.672Z,57.7
2023-05-29T08:51:17.768Z,56.2
2023-05-29T08:53:43.873Z,55.3
2023-05-29T08:56:09.963Z,55.3
2023-05-29T08:58:36.063Z,55.3
2023-05-29T09:01:02.286Z,55.9
2023-05-29T09:03:28.360Z,53.9
2023-05-29T09:05:54.495Z,52.6
2023-05-29T09:08:20.650Z,52.9
2023-05-29T09:10:45.668Z,52.7
2023-05-29T09:13:11.735Z,50.5
2023-05-29T09:15:37.870Z,48.4
2023-05-29T09:18:04.009Z,48.9
2023-05-29T09:20:29.923Z,48.1
2023-05-29T09:22:56.200Z,48.1
2023-05-29T09:25:22.225Z,48
2023-05-29T09:27:48.372Z,48
2023-05-29T09:30:14.443Z,46.5
2023-05-29T09:32:40.583Z,46.7
2023-05-29T09:35:06.674Z,46.1
2023-05-29T09:37:32.812Z,45.7
2023-05-29T09:39:58.798Z,45.7
2023-05-29T09:42:23.940Z,45.6
2023-05-29T09:44:50.059Z,45.9
2023-05-29T09:47:16.186Z,46
2023-05-29T09:49:42.284Z,47.1
2023-05-29T09:52:08.353Z,47.1
2023-05-29T09:54:34.471Z,47.4
2023-05-29T09:59:26.451Z,45.9
2023-05-29T10:01:52.703Z,46.4
2023-05-29T10:04:18.791Z,46.7
2023-05-29T10:06:44.890Z,45.8
2023-05-29T10:09:10.913Z,46.2
2023-05-29T10:11:37.083Z,44.6
2023-05-29T10:14:02.213Z,45.7
2023-05-29T10:16:28.280Z,46.3
2023-05-29T10:18:54.416Z,46.5
2023-05-29T10:21:20.489Z,44
2023-05-29T10:23:46.625Z,44.5
2023-05-29T10:26:12.671Z,44.3
2023-05-29T10:28:38.816Z,45.6
2023-05-29T10:31:04.870Z,44.8
2023-05-29T10:33:30.805Z,44.7
2023-05-29T10:35:57.168Z,45.4
2023-05-29T10:38:23.250Z,44.5
2023-05-29T10:40:49.254Z,44.4
2023-05-29T10:43:15.201Z,43.4
2023-05-29T10:45:40.365Z,43.4
2023-05-29T10:48:06.474Z,43.8
2023-05-29T10:50:32.594Z,42.4
2023-05-29T10:52:58.678Z,42.6
2023-05-29T10:55:24.806Z,42.8
2023-05-29T10:57:50.762Z,42.5
2023-05-29T11:00:16.963Z,41.8
2023-05-29T11:02:43.089Z,42.8
2023-05-29T11:05:09.264Z,42
2023-05-29T11:07:35.317Z,40.4
2023-05-29T11:10:01.399Z,40.4
2023-05-29T11:12:27.489Z,40.5
2023-05-29T11:14:53.571Z,40.1
2023-05-29T11:17:19.609Z,41
2023-05-29T11:19:44.821Z,40.2
2023-05-29T11:22:10.841Z,40.1
2023-05-29T11:24:36.878Z,39
2023-05-29T11:27:02.907Z,37.9
2023-05-29T11:29:29.187Z,38.6
2023-05-29T11:31:55.195Z,39.5
2023-05-29T11:34:21.203Z,38.2
2023-05-29T11:36:47.423Z,37.8
2023-05-29T11:39:13.514Z,38.1
2023-05-29T11:41:39.484Z,38
2023-05-29T11:44:05.828Z,37.8
2023-05-29T11:46:31.826Z,37.9
2023-05-29T11:48:57.988Z,38.1
2023-05-29T11:51:23.938Z,38.4
2023-05-29T11:53:50.028Z,37.7
2023-05-29T11:56:16.223Z,37.5
2023-05-29T11:58:42.141Z,37.7
2023-05-29T12:01:07.280Z,38.1
2023-05-29T12:03:33.371Z,37.3
2023-05-29T12:05:59.437Z,37.2
2023-05-29T12:08:25.608Z,36.4
2023-05-29T12:10:51.673Z,36.2
2023-05-29T12:13:17.895Z,35.8
2023-05-29T12:15:43.813Z,36
2023-05-29T12:18:09.945Z,36.7
2023-05-29T12:20:36.162Z,36.2
2023-05-29T12:23:02.090Z,35.9
2023-05-29T12:25:28.304Z,36.1
2023-05-29T12:27:54.419Z,35.8
2023-05-29T12:30:20.457Z,36.2
2023-05-29T12:32:45.542Z,35.9
2023-05-29T12:35:11.595Z,35.6
2023-05-29T12:37:37.776Z,35.2
2023-05-29T12:40:03.805Z,35.9
2023-05-29T12:42:29.900Z,35
2023-05-29T12:44:55.975Z,33.3
2023-05-29T12:47:22.080Z,33.4
2023-05-29T12:49:48.188Z,31.6
2023-05-29T12:52:14.294Z,31.2
2023-05-29T12:54:40.391Z,30.9
2023-05-29T12:57:06.553Z,30.5
2023-05-29T12:59:32.635Z,30.7
2023-05-29T13:01:58.787Z,30.6
2023-05-29T13:04:23.919Z,30.4
2023-05-29T13:06:50.020Z,29
2023-05-29T13:09:16.004Z,29.8
2023-05-29T13:11:42.085Z,28.5
2023-05-29T13:14:08.289Z,29.8
2023-05-29T13:16:34.332Z,29
2023-05-29T13:19:00.348Z,29.2
2023-05-29T13:21:26.520Z,29.3
2023-05-29T13:23:52.552Z,29.1
2023-05-29T13:26:18.632Z,29
2023-05-29T13:28:44.829Z,28.5
2023-05-29T13:31:10.940Z,28.9
2023-05-29T13:33:36.928Z,28
2023-05-29T13:36:02.213Z,27.9
2023-05-29T13:38:28.350Z,28.1
2023-05-29T13:40:54.300Z,28.4
2023-05-29T13:43:20.337Z,27.3
2023-05-29T13:45:46.622Z,27.5
2023-05-29T13:48:12.797Z,27.6
2023-05-29T13:50:38.681Z,27.9
2023-05-29T13:53:04.769Z,27.2
2023-05-29T13:55:30.849Z,28
2023-05-29T13:57:56.983Z,27.5
2023-05-29T14:00:23.233Z,27.3
2023-05-29T14:02:49.135Z,26.8
2023-05-29T14:05:15.284Z,27.7
2023-05-29T14:07:40.486Z,26.9
2023-05-29T14:10:06.485Z,26.5
2023-05-29T14:12:32.658Z,25.8
2023-05-29T14:14:58.740Z,26.9
2023-05-29T14:17:24.715Z,26.8
2023-05-29T14:19:50.974Z,26.7
2023-05-29T14:22:17.116Z,28
2023-05-29T14:24:43.202Z,28.5
2023-05-29T14:27:09.305Z,28.3
2023-05-29T14:29:35.308Z,28.3
2023-05-29T14:32:01.477Z,27.7
2023-05-29T14:34:27.507Z,27.6
2023-05-29T14:36:53.611Z,27.4
2023-05-29T14:39:18.715Z,27.3
2023-05-29T14:41:44.751Z,27.4
2023-05-29T14:44:10.780Z,27.2
2023-05-29T14:46:37.038Z,26.3
2023-05-29T14:49:03.193Z,26.9
2023-05-29T14:51:29.267Z,26.9
2023-05-29T14:53:55.344Z,26.3
2023-05-29T14:56:21.479Z,25.9
2023-05-29T14:58:47.547Z,26
2023-05-29T15:01:13.589Z,27.3
2023-05-29T15:03:39.749Z,28.3
2023-05-29T15:06:05.892Z,26.6
2023-05-29T15:08:31.902Z,26.1
2023-05-29T15:10:57.026Z,26.9
2023-05-29T15:13:23.129Z,25.7
2023-05-29T15:15:49.258Z,26.7
2023-05-29T15:18:15.357Z,26.5
2023-05-29T15:20:41.387Z,25.5
2023-05-29T15:23:07.556Z,26.5
2023-05-29T15:25:33.462Z,26.4
2023-05-29T15:27:59.643Z,27.6
2023-05-29T15:32:51.762Z,27.6
2023-05-29T15:35:17.928Z,26.9
2023-05-29T15:37:44.068Z,27.7
2023-05-29T15:40:10.224Z,26.9
2023-05-29T15:42:35.156Z,26.5
2023-05-29T15:45:01.423Z,27.8
2023-05-29T15:47:27.543Z,27.4
2023-05-29T15:49:53.557Z,28.3
2023-05-29T15:52:19.704Z,27.7
2023-05-29T15:54:45.844Z,26.2
2023-05-29T15:57:11.879Z,26.7
2023-05-29T15:59:38.021Z,27.2
2023-05-29T16:02:03.971Z,26.7
2023-05-29T16:04:30.068Z,27.6
2023-05-29T16:06:56.132Z,27.4
2023-05-29T16:09:22.388Z,27.8
2023-05-29T16:11:48.485Z,28.4
2023-05-29T16:14:13.616Z,27.4
2023-05-29T16:16:39.779Z,27.4
2023-05-29T16:19:05.833Z,28
2023-05-29T16:21:31.750Z,29
2023-05-29T16:23:57.962Z,29.3
2023-05-29T16:26:24.092Z,30.6
2023-05-29T16:28:50.177Z,29.7
2023-05-29T16:31:16.264Z,29.3
2023-05-29T16:33:42.264Z,29
2023-05-29T16:36:08.470Z,30
2023-05-29T16:38:34.450Z,30.1
2023-05-29T16:41:00.514Z,29.9
2023-05-29T16:43:26.761Z,30
2023-05-29T16:45:51.718Z,30.4
2023-05-29T16:48:17.008Z,31.3
2023-05-29T16:50:43.037Z,32.3
2023-05-29T16:53:09.206Z,32.4
2023-05-29T16:55:35.301Z,31.8
2023-05-29T16:58:01.404Z,32.1
2023-05-29T17:00:27.328Z,33
2023-05-29T17:02:53.650Z,33.9
2023-05-29T17:05:19.515Z,34.8
2023-05-29T17:07:45.773Z,36.5
2023-05-29T17:10:11.766Z,36.5
2023-05-29T17:12:37.901Z,36.3
2023-05-29T17:15:03.926Z,35.6
2023-05-29T17:17:30.044Z,36.8
2023-05-29T17:19:55.198Z,37.4
2023-05-29T17:22:21.220Z,37.5
2023-05-29T17:24:47.326Z,36.9
2023-05-29T17:27:13.440Z,36.8
2023-05-29T17:29:39.480Z,37.6
2023-05-29T17:32:05.624Z,38.2
2023-05-29T17:34:31.669Z,38.2
2023-05-29T17:36:57.999Z,37.8
2023-05-29T17:39:23.879Z,38
2023-05-29T17:41:50.002Z,37.5
2023-05-29T17:44:16.054Z,37.6
2023-05-29T17:46:42.172Z,38.2
2023-05-29T17:49:08.243Z,38.1
2023-05-29T17:51:33.362Z,38.1
2023-05-29T17:53:59.456Z,38.7
2023-05-29T17:56:25.576Z,38.9
2023-05-29T17:58:51.660Z,39.1
2023-05-29T18:01:17.734Z,39
2023-05-29T18:03:43.825Z,39.6
2023-05-29T18:06:09.934Z,39.9
2023-05-29T18:08:36.017Z,39.4
2023-05-29T18:11:02.110Z,39.3
2023-05-29T18:13:28.220Z,39.9
2023-05-29T18:15:54.313Z,39.9
2023-05-29T18:18:20.617Z,39.9
2023-05-29T18:20:46.695Z,39.8
2023-05-29T18:23:11.761Z,40.7
2023-05-29T18:25:37.717Z,40.7
2023-05-29T18:28:03.945Z,41.5
2023-05-29T18:30:30.037Z,40.4
2023-05-29T18:32:56.196Z,39.8
2023-05-29T18:35:22.086Z,39.8
2023-05-29T18:37:48.304Z,39.8
2023-05-29T18:40:14.428Z,39.9
2023-05-29T18:42:40.553Z,40.9
2023-05-29T18:45:06.668Z,41.2
2023-05-29T18:47:32.808Z,41.7
2023-05-29T18:49:58.849Z,42.2
2023-05-29T18:52:24.930Z,41.8
2023-05-29T18:54:50.121Z,41.6
2023-05-29T18:57:16.115Z,42
2023-05-29T18:59:42.173Z,42.4
2023-05-29T19:02:08.143Z,42
2023-05-29T19:04:34.391Z,41.5
2023-05-29T19:07:00.550Z,41.6
2023-05-29T19:09:26.632Z,42.4
2023-05-29T19:11:52.703Z,42.2
2023-05-29T19:14:18.718Z,42.4
2023-05-29T19:16:44.870Z,42.5
2023-05-29T19:19:10.927Z,43.1
2023-05-29T19:21:37.031Z,44.2
2023-05-29T19:24:03.220Z,44.3
2023-05-29T19:26:28.317Z,46.2
2023-05-29T19:28:54.377Z,48.5
2023-05-29T19:31:20.458Z,49.2
2023-05-29T19:33:46.504Z,50
2023-05-29T19:36:12.659Z,51.5
2023-05-29T19:38:38.736Z,49.2
2023-05-29T19:41:04.885Z,51
2023-05-29T19:43:30.987Z,52.5
2023-05-29T19:45:57.046Z,52.6
2023-05-29T19:48:23.145Z,53.9
2023-05-29T19:50:49.186Z,53.8
2023-05-29T19:53:15.291Z,54.7
2023-05-29T19:55:41.374Z,55.8
2023-05-29T19:58:07.598Z,55.9
2023-05-29T20:00:33.607Z,56.2
2023-05-29T20:02:59.685Z,56
2023-05-29T20:05:24.807Z,56.1
2023-05-29T20:07:50.917Z,57.8
2023-05-29T20:10:16.982Z,57.7
2023-05-29T20:12:43.079Z,57.6
2023-05-29T20:15:09.022Z,57.1
2023-05-29T20:17:35.200Z,58
2023-05-29T20:20:01.403Z,56.6
2023-05-29T20:22:27.435Z,57.8
2023-05-29T20:24:53.578Z,58.5
2023-05-29T20:27:19.599Z,58.5
2023-05-29T20:29:45.784Z,58.2
2023-05-29T20:32:11.678Z,59.4
2023-05-29T20:34:37.961Z,60
2023-05-29T20:37:03.098Z,60.3
2023-05-29T20:39:29.209Z,61.6
2023-05-29T20:41:55.087Z,61.1
2023-05-29T20:44:21.347Z,61.5
2023-05-29T20:46:47.395Z,61.9
2023-05-29T20:49:13.558Z,62.4
2023-05-29T20:51:39.651Z,63.1
2023-05-29T20:54:05.837Z,63.5
2023-05-29T20:56:31.816Z,64
2023-05-29T20:58:57.962Z,64.4
2023-05-29T21:01:23.857Z,64.7
2023-05-29T21:03:49.943Z,65.5
2023-05-29T21:06:16.030Z,65.8
2023-05-29T21:08:41.278Z,66.1
2023-05-29T21:11:07.282Z,66.7
2023-05-29T21:13:33.564Z,66.4
2023-05-29T21:15:59.413Z,66.8
2023-05-29T21:18:25.715Z,67
2023-05-29T21:20:51.614Z,66.7
2023-05-29T21:23:17.919Z,66.8
2023-05-29T21:25:43.996Z,68.1
2023-05-29T21:28:10.088Z,69.4
2023-05-29T21:30:36.150Z,70.2
2023-05-29T21:33:02.293Z,69.8
2023-05-29T21:35:28.379Z,70
2023-05-29T21:40:20.543Z,70.5
2023-05-29T21:42:45.636Z,69.8
2023-05-29T21:45:11.641Z,70.1
2023-05-29T21:47:37.852Z,70.1
2023-05-29T21:50:03.918Z,70.3
2023-05-29T21:52:29.997Z,70.3
2023-05-29T21:54:56.123Z,70.5
2023-05-29T21:57:22.198Z,70.7
2023-05-29T21:59:48.326Z,71.6
2023-05-29T22:02:14.333Z,71.4
2023-05-29T22:04:40.540Z,72.2
2023-05-29T22:07:06.481Z,72.2
2023-05-29T22:09:32.705Z,72.6
2023-05-29T22:11:58.786Z,71.2
2023-05-29T22:14:23.899Z,71.8
2023-05-29T22:16:50.075Z,72.3
2023-05-29T22:19:16.088Z,72.3
2023-05-29T22:21:42.133Z,73
2023-05-29T22:24:08.227Z,72.3
2023-05-29T22:26:34.400Z,72.9
2023-05-29T22:29:00.461Z,73.9
2023-05-29T22:31:26.530Z,74.2
2023-05-29T22:33:52.709Z,74.6
2023-05-29T22:36:18.729Z,74.1
2023-05-29T22:38:44.738Z,74.4
2023-05-29T22:41:10.836Z,74.7
2023-05-29T22:43:37.030Z,75
2023-05-29T22:46:02.183Z,74.6
2023-05-29T22:48:28.249Z,74.9
2023-05-29T22:50:54.253Z,74.7
2023-05-29T22:53:20.438Z,74.5
2023-05-29T22:55:46.548Z,74.4
2023-05-29T22:58:12.635Z,74.5
2023-05-29T23:00:38.738Z,72.9
2023-05-29T23:03:04.642Z,73.3
2023-05-29T23:05:30.933Z,72.3
2023-05-29T23:07:57.001Z,72.1
2023-05-29T23:10:23.110Z,72
2023-05-29T23:12:49.164Z,71.3
2023-05-29T23:15:15.294Z,71.4
2023-05-29T23:17:40.444Z,71.3
2023-05-29T23:20:06.451Z,72
2023-05-29T23:22:32.416Z,72.3
2023-05-29T23:24:58.727Z,71.9
2023-05-29T23:27:24.778Z,71
2023-05-29T23:29:50.858Z,71.8
2023-05-29T23:32:16.948Z,71.3
2023-05-29T23:34:43.032Z,71.2
2023-05-29T23:37:09.080Z,71.3
2023-05-29T23:39:35.319Z,70.7
2023-05-29T23:42:01.365Z,71.1
2023-05-29T23:44:27.445Z,70.1
2023-05-29T23:46:53.549Z,70.8
2023-05-29T23:49:18.632Z,69.7
2023-05-29T23:51:44.728Z,69.2
2023-05-29T23:54:10.830Z,69.7
2023-05-29T23:56:36.928Z,69.5
2023-05-29T23:59:03.028Z,69
